sensor_id;sensor_type;location;lat;lon;timestamp;P1;durP1;ratioP1;P2;durP2;ratioP2
4313;SDS011;2170;48.794;9.182;2022-11-20T00:00:17;16.33;;;12.47;;
4313;SDS011;2170;48.794;9.182;2022-11-20T00:02:44;16.77;;;13.50;;
4313;SDS011;2170;48.794;9.182;2022-11-20T00:05:11;13.30;;;11.87;;
4313;SDS011;2170;48.794;9.182;2022-11-20T00:07:38;14.83;;;12.70;;
4313;SDS011;2170;48.794;9.182;2022-11-20T00:10:05;16.67;;;13.57;;
4313;SDS011;2170;48.794;9.182;2022-11-20T00:12:32;14.13;;;12.73;;
4313;SDS011;2170;48.794;9.182;2022-11-20T00:15:01;13.60;;;12.20;;
4313;SDS011;2170;48.794;9.182;2022-11-20T00:17:28;16.70;;;13.03;;
4313;SDS011;2170;48.794;9.182;2022-11-20T00:19:55;15.97;;;14.27;;
4313;SDS011;2170;48.794;9.182;2022-11-20T00:22:22;13.87;;;12.37;;
4313;SDS011;2170;48.794;9.182;2022-11-20T00:24:49;15.40;;;12.83;;
4313;SDS011;2170;48.794;9.182;2022-11-20T00:27:16;13.60;;;12.20;;
4313;SDS011;2170;48.794;9.182;2022-11-20T00:29:43;14.80;;;13.27;;
4313;SDS011;2170;48.794;9.182;2022-11-20T00:32:12;18.90;;;13.90;;
4313;SDS011;2170;48.794;9.182;2022-11-20T00:34:39;15.00;;;13.40;;
4313;SDS011;2170;48.794;9.182;2022-11-20T00:37:06;16.90;;;12.90;;
4313;SDS011;2170;48.794;9.182;2022-11-20T00:39:33;15.33;;;12.90;;
4313;SDS011;2170;48.794;9.182;2022-11-20T00:42:00;16.67;;;13.20;;
4313;SDS011;2170;48.794;9.182;2022-11-20T00:44:27;16.60;;;13.80;;
4313;SDS011;2170;48.794;9.182;2022-11-20T00:46:54;13.50;;;9.90;;
4313;SDS011;2170;48.794;9.182;2022-11-20T00:49:22;12.13;;;10.60;;
4313;SDS011;2170;48.794;9.182;2022-11-20T00:51:49;12.40;;;11.07;;
4313;SDS011;2170;48.794;9.182;2022-11-20T00:54:16;8.53;;;7.70;;
4313;SDS011;2170;48.794;9.182;2022-11-20T00:56:43;7.50;;;6.60;;
4313;SDS011;2170;48.794;9.182;2022-11-20T00:59:10;7.13;;;6.43;;
4313;SDS011;2170;48.794;9.182;2022-11-20T01:01:38;6.27;;;5.53;;
4313;SDS011;2170;48.794;9.182;2022-11-20T01:04:05;7.20;;;6.10;;
4313;SDS011;2170;48.794;9.182;2022-11-20T01:06:34;5.30;;;4.80;;
4313;SDS011;2170;48.794;9.182;2022-11-20T01:09:03;5.17;;;4.67;;
4313;SDS011;2170;48.794;9.182;2022-11-20T01:11:31;5.60;;;5.00;;
4313;SDS011;2170;48.794;9.182;2022-11-20T01:13:59;5.17;;;4.77;;
4313;SDS011;2170;48.794;9.182;2022-11-20T01:16:28;5.27;;;4.87;;
4313;SDS011;2170;48.794;9.182;2022-11-20T01:18:56;4.37;;;4.03;;
4313;SDS011;2170;48.794;9.182;2022-11-20T01:21:24;5.63;;;4.60;;
4313;SDS011;2170;48.794;9.182;2022-11-20T01:23:52;5.63;;;4.30;;
4313;SDS011;2170;48.794;9.182;2022-11-20T01:26:20;4.97;;;4.67;;
4313;SDS011;2170;48.794;9.182;2022-11-20T01:28:47;4.30;;;4.00;;
4313;SDS011;2170;48.794;9.182;2022-11-20T01:31:15;4.40;;;3.93;;
4313;SDS011;2170;48.794;9.182;2022-11-20T01:33:42;4.90;;;4.50;;
4313;SDS011;2170;48.794;9.182;2022-11-20T01:36:10;5.83;;;4.90;;
4313;SDS011;2170;48.794;9.182;2022-11-20T01:38:37;5.00;;;4.60;;
4313;SDS011;2170;48.794;9.182;2022-11-20T01:41:06;5.70;;;4.50;;
4313;SDS011;2170;48.794;9.182;2022-11-20T01:43:33;4.77;;;4.37;;
4313;SDS011;2170;48.794;9.182;2022-11-20T01:46:04;4.97;;;4.47;;
4313;SDS011;2170;48.794;9.182;2022-11-20T01:48:33;5.03;;;4.53;;
4313;SDS011;2170;48.794;9.182;2022-11-20T01:51:00;5.13;;;4.23;;
4313;SDS011;2170;48.794;9.182;2022-11-20T01:53:29;4.87;;;4.23;;
4313;SDS011;2170;48.794;9.182;2022-11-20T01:55:59;4.13;;;3.73;;
4313;SDS011;2170;48.794;9.182;2022-11-20T01:58:28;4.33;;;3.93;;
4313;SDS011;2170;48.794;9.182;2022-11-20T02:00:57;4.40;;;4.13;;
4313;SDS011;2170;48.794;9.182;2022-11-20T02:03:24;3.33;;;3.03;;
4313;SDS011;2170;48.794;9.182;2022-11-20T02:05:51;4.70;;;4.27;;
4313;SDS011;2170;48.794;9.182;2022-11-20T02:08:21;4.00;;;3.47;;
4313;SDS011;2170;48.794;9.182;2022-11-20T02:10:48;4.33;;;3.93;;
4313;SDS011;2170;48.794;9.182;2022-11-20T02:13:15;3.77;;;3.57;;
4313;SDS011;2170;48.794;9.182;2022-11-20T02:16:02;4.57;;;4.17;;
4313;SDS011;2170;48.794;9.182;2022-11-20T02:18:30;4.53;;;4.13;;
4313;SDS011;2170;48.794;9.182;2022-11-20T02:20:58;4.23;;;3.83;;
4313;SDS011;2170;48.794;9.182;2022-11-20T02:23:26;3.90;;;3.50;;
4313;SDS011;2170;48.794;9.182;2022-11-20T02:25:56;4.00;;;3.70;;
4313;SDS011;2170;48.794;9.182;2022-11-20T02:28:23;4.53;;;4.13;;
4313;SDS011;2170;48.794;9.182;2022-11-20T02:30:50;3.70;;;3.40;;
4313;SDS011;2170;48.794;9.182;2022-11-20T02:33:18;3.53;;;3.30;;
4313;SDS011;2170;48.794;9.182;2022-11-20T02:35:45;4.03;;;3.73;;
4313;SDS011;2170;48.794;9.182;2022-11-20T02:38:13;4.07;;;3.80;;
4313;SDS011;2170;48.794;9.182;2022-11-20T02:40:40;4.60;;;4.20;;
4313;SDS011;2170;48.794;9.182;2022-11-20T02:43:08;3.73;;;3.43;;
4313;SDS011;2170;48.794;9.182;2022-11-20T02:45:36;4.20;;;3.90;;
4313;SDS011;2170;48.794;9.182;2022-11-20T02:48:03;4.23;;;3.40;;
4313;SDS011;2170;48.794;9.182;2022-11-20T02:50:30;4.43;;;4.03;;
4313;SDS011;2170;48.794;9.182;2022-11-20T02:52:57;4.93;;;4.53;;
4313;SDS011;2170;48.794;9.182;2022-11-20T02:55:24;4.13;;;3.83;;
4313;SDS011;2170;48.794;9.182;2022-11-20T02:57:52;4.63;;;4.23;;
4313;SDS011;2170;48.794;9.182;2022-11-20T03:00:20;4.00;;;3.60;;
4313;SDS011;2170;48.794;9.182;2022-11-20T03:02:47;4.83;;;4.43;;
4313;SDS011;2170;48.794;9.182;2022-11-20T03:05:14;3.83;;;3.53;;
4313;SDS011;2170;48.794;9.182;2022-11-20T03:07:42;4.60;;;4.20;;
4313;SDS011;2170;48.794;9.182;2022-11-20T03:10:10;4.27;;;3.80;;
4313;SDS011;2170;48.794;9.182;2022-11-20T03:12:37;5.13;;;3.93;;
4313;SDS011;2170;48.794;9.182;2022-11-20T03:15:04;4.83;;;4.40;;
4313;SDS011;2170;48.794;9.182;2022-11-20T03:17:33;4.33;;;4.03;;
4313;SDS011;2170;48.794;9.182;2022-11-20T03:20:00;4.17;;;3.87;;
4313;SDS011;2170;48.794;9.182;2022-11-20T03:22:28;4.33;;;4.03;;
4313;SDS011;2170;48.794;9.182;2022-11-20T03:24:55;4.80;;;4.50;;
4313;SDS011;2170;48.794;9.182;2022-11-20T03:27:22;4.60;;;4.30;;
4313;SDS011;2170;48.794;9.182;2022-11-20T03:29:49;4.43;;;4.10;;
4313;SDS011;2170;48.794;9.182;2022-11-20T03:32:16;4.43;;;4.13;;
4313;SDS011;2170;48.794;9.182;2022-11-20T03:34:45;4.40;;;4.10;;
4313;SDS011;2170;48.794;9.182;2022-11-20T03:37:12;5.30;;;4.90;;
4313;SDS011;2170;48.794;9.182;2022-11-20T03:39:39;5.43;;;4.93;;
4313;SDS011;2170;48.794;9.182;2022-11-20T03:42:06;5.00;;;4.10;;
4313;SDS011;2170;48.794;9.182;2022-11-20T03:44:53;5.27;;;4.87;;
4313;SDS011;2170;48.794;9.182;2022-11-20T03:47:20;5.20;;;4.80;;
4313;SDS011;2170;48.794;9.182;2022-11-20T03:49:48;4.93;;;4.57;;
4313;SDS011;2170;48.794;9.182;2022-11-20T03:52:15;5.13;;;4.73;;
4313;SDS011;2170;48.794;9.182;2022-11-20T03:54:42;5.00;;;4.60;;
4313;SDS011;2170;48.794;9.182;2022-11-20T03:57:09;5.20;;;4.83;;
4313;SDS011;2170;48.794;9.182;2022-11-20T03:59:36;5.40;;;5.00;;
4313;SDS011;2170;48.794;9.182;2022-11-20T04:02:03;5.57;;;5.07;;
4313;SDS011;2170;48.794;9.182;2022-11-20T04:04:30;5.07;;;4.77;;
4313;SDS011;2170;48.794;9.182;2022-11-20T04:06:59;5.23;;;4.83;;
4313;SDS011;2170;48.794;9.182;2022-11-20T04:09:26;5.70;;;5.30;;
4313;SDS011;2170;48.794;9.182;2022-11-20T04:11:53;6.07;;;5.47;;
4313;SDS011;2170;48.794;9.182;2022-11-20T04:14:20;6.80;;;6.13;;
4313;SDS011;2170;48.794;9.182;2022-11-20T04:16:47;6.60;;;5.30;;
4313;SDS011;2170;48.794;9.182;2022-11-20T04:19:15;6.40;;;5.80;;
4313;SDS011;2170;48.794;9.182;2022-11-20T04:21:43;8.00;;;5.03;;
4313;SDS011;2170;48.794;9.182;2022-11-20T04:24:11;5.53;;;4.97;;
4313;SDS011;2170;48.794;9.182;2022-11-20T04:26:39;5.70;;;5.20;;
4313;SDS011;2170;48.794;9.182;2022-11-20T04:29:06;5.30;;;4.90;;
4313;SDS011;2170;48.794;9.182;2022-11-20T04:31:33;6.57;;;5.80;;
4313;SDS011;2170;48.794;9.182;2022-11-20T04:34:01;5.20;;;4.90;;
4313;SDS011;2170;48.794;9.182;2022-11-20T04:36:29;5.70;;;5.30;;
4313;SDS011;2170;48.794;9.182;2022-11-20T04:38:56;6.80;;;5.57;;
4313;SDS011;2170;48.794;9.182;2022-11-20T04:41:26;5.73;;;5.33;;
4313;SDS011;2170;48.794;9.182;2022-11-20T04:43:53;7.23;;;5.53;;
4313;SDS011;2170;48.794;9.182;2022-11-20T04:46:24;5.63;;;5.23;;
4313;SDS011;2170;48.794;9.182;2022-11-20T04:48:51;5.43;;;5.03;;
4313;SDS011;2170;48.794;9.182;2022-11-20T04:51:19;5.87;;;5.40;;
4313;SDS011;2170;48.794;9.182;2022-11-20T04:53:46;5.80;;;5.30;;
4313;SDS011;2170;48.794;9.182;2022-11-20T04:56:13;5.60;;;4.90;;
4313;SDS011;2170;48.794;9.182;2022-11-20T04:58:42;5.87;;;5.37;;
4313;SDS011;2170;48.794;9.182;2022-11-20T05:01:09;5.17;;;4.77;;
4313;SDS011;2170;48.794;9.182;2022-11-20T05:03:37;5.63;;;5.23;;
4313;SDS011;2170;48.794;9.182;2022-11-20T05:06:04;6.40;;;4.90;;
4313;SDS011;2170;48.794;9.182;2022-11-20T05:08:31;6.63;;;5.93;;
4313;SDS011;2170;48.794;9.182;2022-11-20T05:10:59;5.43;;;5.13;;
4313;SDS011;2170;48.794;9.182;2022-11-20T05:13:26;6.37;;;5.87;;
4313;SDS011;2170;48.794;9.182;2022-11-20T05:15:55;6.20;;;5.43;;
4313;SDS011;2170;48.794;9.182;2022-11-20T05:18:22;6.10;;;5.60;;
4313;SDS011;2170;48.794;9.182;2022-11-20T05:20:54;4.87;;;4.57;;
4313;SDS011;2170;48.794;9.182;2022-11-20T05:23:21;4.97;;;4.57;;
4313;SDS011;2170;48.794;9.182;2022-11-20T05:25:48;5.53;;;5.13;;
4313;SDS011;2170;48.794;9.182;2022-11-20T05:28:18;5.50;;;5.00;;
4313;SDS011;2170;48.794;9.182;2022-11-20T05:30:45;5.60;;;5.30;;
4313;SDS011;2170;48.794;9.182;2022-11-20T05:33:13;5.20;;;4.80;;
4313;SDS011;2170;48.794;9.182;2022-11-20T05:35:40;5.37;;;4.97;;
4313;SDS011;2170;48.794;9.182;2022-11-20T05:38:07;4.90;;;4.50;;
4313;SDS011;2170;48.794;9.182;2022-11-20T05:40:34;5.37;;;4.87;;
4313;SDS011;2170;48.794;9.182;2022-11-20T05:43:02;5.33;;;4.93;;
4313;SDS011;2170;48.794;9.182;2022-11-20T05:45:29;5.17;;;4.77;;
4313;SDS011;2170;48.794;9.182;2022-11-20T05:47:57;5.10;;;4.70;;
4313;SDS011;2170;48.794;9.182;2022-11-20T05:50:26;5.73;;;5.20;;
4313;SDS011;2170;48.794;9.182;2022-11-20T05:52:53;5.43;;;5.03;;
4313;SDS011;2170;48.794;9.182;2022-11-20T05:55:20;5.07;;;4.70;;
4313;SDS011;2170;48.794;9.182;2022-11-20T05:57:47;5.73;;;5.33;;
4313;SDS011;2170;48.794;9.182;2022-11-20T06:00:15;5.30;;;4.93;;
4313;SDS011;2170;48.794;9.182;2022-11-20T06:02:42;5.33;;;4.83;;
4313;SDS011;2170;48.794;9.182;2022-11-20T06:05:09;5.67;;;5.23;;
4313;SDS011;2170;48.794;9.182;2022-11-20T06:07:37;5.33;;;4.93;;
4313;SDS011;2170;48.794;9.182;2022-11-20T06:10:05;5.37;;;4.47;;
4313;SDS011;2170;48.794;9.182;2022-11-20T06:14:59;5.60;;;5.20;;
4313;SDS011;2170;48.794;9.182;2022-11-20T06:17:26;4.73;;;4.27;;
4313;SDS011;2170;48.794;9.182;2022-11-20T06:19:53;5.37;;;4.87;;
4313;SDS011;2170;48.794;9.182;2022-11-20T06:22:20;4.73;;;4.33;;
4313;SDS011;2170;48.794;9.182;2022-11-20T06:24:48;5.03;;;4.63;;
4313;SDS011;2170;48.794;9.182;2022-11-20T06:27:15;4.27;;;3.97;;
4313;SDS011;2170;48.794;9.182;2022-11-20T06:29:43;4.47;;;4.07;;
4313;SDS011;2170;48.794;9.182;2022-11-20T06:32:10;5.17;;;4.73;;
4313;SDS011;2170;48.794;9.182;2022-11-20T06:34:37;4.57;;;4.17;;
4313;SDS011;2170;48.794;9.182;2022-11-20T06:37:04;4.53;;;4.13;;
4313;SDS011;2170;48.794;9.182;2022-11-20T06:39:31;3.93;;;3.70;;
4313;SDS011;2170;48.794;9.182;2022-11-20T06:41:59;4.37;;;3.97;;
4313;SDS011;2170;48.794;9.182;2022-11-20T06:44:26;7.83;;;4.67;;
4313;SDS011;2170;48.794;9.182;2022-11-20T06:46:53;4.50;;;4.10;;
4313;SDS011;2170;48.794;9.182;2022-11-20T06:49:20;4.37;;;4.03;;
4313;SDS011;2170;48.794;9.182;2022-11-20T06:51:47;4.70;;;4.30;;
4313;SDS011;2170;48.794;9.182;2022-11-20T06:54:15;4.20;;;3.90;;
4313;SDS011;2170;48.794;9.182;2022-11-20T06:56:42;3.97;;;3.70;;
4313;SDS011;2170;48.794;9.182;2022-11-20T06:59:10;7.00;;;4.50;;
4313;SDS011;2170;48.794;9.182;2022-11-20T07:01:37;4.13;;;3.83;;
4313;SDS011;2170;48.794;9.182;2022-11-20T07:04:04;5.27;;;4.47;;
4313;SDS011;2170;48.794;9.182;2022-11-20T07:06:31;3.80;;;3.50;;
4313;SDS011;2170;48.794;9.182;2022-11-20T07:08:58;3.80;;;3.60;;
4313;SDS011;2170;48.794;9.182;2022-11-20T07:11:26;3.53;;;3.07;;
4313;SDS011;2170;48.794;9.182;2022-11-20T07:13:53;3.70;;;3.27;;
4313;SDS011;2170;48.794;9.182;2022-11-20T07:16:22;4.10;;;3.67;;
4313;SDS011;2170;48.794;9.182;2022-11-20T07:18:49;4.70;;;3.10;;
4313;SDS011;2170;48.794;9.182;2022-11-20T07:21:16;3.57;;;3.37;;
4313;SDS011;2170;48.794;9.182;2022-11-20T07:23:43;3.63;;;3.43;;
4313;SDS011;2170;48.794;9.182;2022-11-20T07:26:10;5.37;;;4.10;;
4313;SDS011;2170;48.794;9.182;2022-11-20T07:28:37;3.50;;;3.30;;
4313;SDS011;2170;48.794;9.182;2022-11-20T07:31:05;3.53;;;3.33;;
4313;SDS011;2170;48.794;9.182;2022-11-20T07:33:33;3.60;;;3.33;;
4313;SDS011;2170;48.794;9.182;2022-11-20T07:36:01;3.33;;;3.13;;
4313;SDS011;2170;48.794;9.182;2022-11-20T07:38:28;3.90;;;3.60;;
4313;SDS011;2170;48.794;9.182;2022-11-20T07:40:55;3.50;;;3.20;;
4313;SDS011;2170;48.794;9.182;2022-11-20T07:43:22;3.60;;;3.40;;
4313;SDS011;2170;48.794;9.182;2022-11-20T07:45:50;4.90;;;4.27;;
4313;SDS011;2170;48.794;9.182;2022-11-20T07:48:17;3.83;;;3.20;;
4313;SDS011;2170;48.794;9.182;2022-11-20T07:50:45;3.60;;;3.30;;
4313;SDS011;2170;48.794;9.182;2022-11-20T07:53:12;3.90;;;3.40;;
4313;SDS011;2170;48.794;9.182;2022-11-20T07:55:45;4.13;;;3.40;;
4313;SDS011;2170;48.794;9.182;2022-11-20T07:58:12;3.13;;;2.93;;
4313;SDS011;2170;48.794;9.182;2022-11-20T08:00:39;6.27;;;3.57;;
4313;SDS011;2170;48.794;9.182;2022-11-20T08:03:07;2.83;;;2.70;;
4313;SDS011;2170;48.794;9.182;2022-11-20T08:05:34;2.80;;;2.60;;
4313;SDS011;2170;48.794;9.182;2022-11-20T08:08:03;3.00;;;2.80;;
4313;SDS011;2170;48.794;9.182;2022-11-20T08:10:31;2.90;;;2.70;;
4313;SDS011;2170;48.794;9.182;2022-11-20T08:12:58;2.50;;;2.40;;
4313;SDS011;2170;48.794;9.182;2022-11-20T08:15:47;2.90;;;2.77;;
4313;SDS011;2170;48.794;9.182;2022-11-20T08:18:14;4.57;;;4.17;;
4313;SDS011;2170;48.794;9.182;2022-11-20T08:20:41;4.60;;;4.20;;
4313;SDS011;2170;48.794;9.182;2022-11-20T08:23:09;4.13;;;3.83;;
4313;SDS011;2170;48.794;9.182;2022-11-20T08:25:37;2.60;;;2.50;;
4313;SDS011;2170;48.794;9.182;2022-11-20T08:28:04;2.90;;;2.70;;
4313;SDS011;2170;48.794;9.182;2022-11-20T08:30:32;3.80;;;2.70;;
4313;SDS011;2170;48.794;9.182;2022-11-20T08:33:00;2.90;;;2.70;;
4313;SDS011;2170;48.794;9.182;2022-11-20T08:35:28;2.47;;;2.27;;
4313;SDS011;2170;48.794;9.182;2022-11-20T08:37:55;2.73;;;2.53;;
4313;SDS011;2170;48.794;9.182;2022-11-20T08:40:23;2.83;;;2.67;;
4313;SDS011;2170;48.794;9.182;2022-11-20T08:42:50;3.03;;;2.83;;
4313;SDS011;2170;48.794;9.182;2022-11-20T08:45:18;3.00;;;2.70;;
4313;SDS011;2170;48.794;9.182;2022-11-20T08:47:45;4.10;;;2.47;;
4313;SDS011;2170;48.794;9.182;2022-11-20T08:50:14;2.73;;;2.60;;
4313;SDS011;2170;48.794;9.182;2022-11-20T08:52:41;2.73;;;2.57;;
4313;SDS011;2170;48.794;9.182;2022-11-20T08:55:08;2.23;;;2.13;;
4313;SDS011;2170;48.794;9.182;2022-11-20T08:57:37;2.80;;;2.10;;
4313;SDS011;2170;48.794;9.182;2022-11-20T09:00:05;2.47;;;2.30;;
4313;SDS011;2170;48.794;9.182;2022-11-20T09:02:32;2.50;;;2.33;;
4313;SDS011;2170;48.794;9.182;2022-11-20T09:05:00;2.63;;;2.43;;
4313;SDS011;2170;48.794;9.182;2022-11-20T09:07:28;2.53;;;2.43;;
4313;SDS011;2170;48.794;9.182;2022-11-20T09:09:55;2.37;;;2.10;;
4313;SDS011;2170;48.794;9.182;2022-11-20T09:12:22;1.70;;;1.70;;
4313;SDS011;2170;48.794;9.182;2022-11-20T09:14:51;2.07;;;1.97;;
4313;SDS011;2170;48.794;9.182;2022-11-20T09:17:18;1.90;;;1.80;;
4313;SDS011;2170;48.794;9.182;2022-11-20T09:19:45;1.53;;;1.43;;
4313;SDS011;2170;48.794;9.182;2022-11-20T09:22:13;2.80;;;1.40;;
4313;SDS011;2170;48.794;9.182;2022-11-20T09:24:40;1.50;;;1.50;;
4313;SDS011;2170;48.794;9.182;2022-11-20T09:27:07;2.00;;;1.53;;
4313;SDS011;2170;48.794;9.182;2022-11-20T09:29:34;2.00;;;1.90;;
4313;SDS011;2170;48.794;9.182;2022-11-20T09:32:03;1.50;;;1.40;;
4313;SDS011;2170;48.794;9.182;2022-11-20T09:34:31;1.70;;;1.60;;
4313;SDS011;2170;48.794;9.182;2022-11-20T09:36:58;1.97;;;1.70;;
4313;SDS011;2170;48.794;9.182;2022-11-20T09:39:25;1.57;;;1.57;;
4313;SDS011;2170;48.794;9.182;2022-11-20T09:44:38;1.20;;;1.20;;
4313;SDS011;2170;48.794;9.182;2022-11-20T09:47:09;1.03;;;1.03;;
4313;SDS011;2170;48.794;9.182;2022-11-20T09:49:40;1.30;;;1.30;;
4313;SDS011;2170;48.794;9.182;2022-11-20T09:52:15;2.00;;;1.10;;
4313;SDS011;2170;48.794;9.182;2022-11-20T09:54:48;1.27;;;1.17;;
4313;SDS011;2170;48.794;9.182;2022-11-20T09:57:17;1.23;;;1.23;;
4313;SDS011;2170;48.794;9.182;2022-11-20T09:59:46;1.23;;;1.23;;
4313;SDS011;2170;48.794;9.182;2022-11-20T10:02:20;1.20;;;1.20;;
4313;SDS011;2170;48.794;9.182;2022-11-20T10:04:52;1.07;;;1.07;;
4313;SDS011;2170;48.794;9.182;2022-11-20T10:07:21;1.10;;;1.10;;
4313;SDS011;2170;48.794;9.182;2022-11-20T10:09:50;1.00;;;1.00;;
4313;SDS011;2170;48.794;9.182;2022-11-20T10:12:19;1.20;;;1.20;;
4313;SDS011;2170;48.794;9.182;2022-11-20T10:14:59;1.20;;;1.20;;
4313;SDS011;2170;48.794;9.182;2022-11-20T10:17:34;1.40;;;1.40;;
4313;SDS011;2170;48.794;9.182;2022-11-20T10:20:12;1.13;;;1.13;;
4313;SDS011;2170;48.794;9.182;2022-11-20T10:22:46;1.20;;;1.20;;
4313;SDS011;2170;48.794;9.182;2022-11-20T10:25:18;1.40;;;1.30;;
4313;SDS011;2170;48.794;9.182;2022-11-20T10:27:53;1.20;;;1.20;;
4313;SDS011;2170;48.794;9.182;2022-11-20T10:30:23;1.27;;;1.20;;
4313;SDS011;2170;48.794;9.182;2022-11-20T10:32:54;1.10;;;1.10;;
4313;SDS011;2170;48.794;9.182;2022-11-20T10:35:22;1.70;;;1.60;;
4313;SDS011;2170;48.794;9.182;2022-11-20T10:37:51;1.50;;;1.37;;
4313;SDS011;2170;48.794;9.182;2022-11-20T10:40:22;1.37;;;1.37;;
4313;SDS011;2170;48.794;9.182;2022-11-20T10:42:50;1.50;;;1.50;;
4313;SDS011;2170;48.794;9.182;2022-11-20T10:45:21;1.50;;;1.40;;
4313;SDS011;2170;48.794;9.182;2022-11-20T10:47:56;1.50;;;1.50;;
4313;SDS011;2170;48.794;9.182;2022-11-20T10:50:27;1.60;;;1.50;;
4313;SDS011;2170;48.794;9.182;2022-11-20T10:52:56;1.97;;;1.80;;
4313;SDS011;2170;48.794;9.182;2022-11-20T10:55:27;3.63;;;3.00;;
4313;SDS011;2170;48.794;9.182;2022-11-20T10:58:00;1.70;;;1.60;;
4313;SDS011;2170;48.794;9.182;2022-11-20T11:00:32;1.80;;;1.70;;
4313;SDS011;2170;48.794;9.182;2022-11-20T11:03:00;3.97;;;1.90;;
4313;SDS011;2170;48.794;9.182;2022-11-20T11:05:35;1.77;;;1.73;;
4313;SDS011;2170;48.794;9.182;2022-11-20T11:08:04;1.30;;;1.20;;
4313;SDS011;2170;48.794;9.182;2022-11-20T11:10:36;2.00;;;1.90;;
4313;SDS011;2170;48.794;9.182;2022-11-20T11:13:06;1.73;;;1.63;;
4313;SDS011;2170;48.794;9.182;2022-11-20T11:15:36;2.03;;;1.83;;
4313;SDS011;2170;48.794;9.182;2022-11-20T11:18:07;1.50;;;1.50;;
4313;SDS011;2170;48.794;9.182;2022-11-20T11:20:35;2.47;;;2.27;;
4313;SDS011;2170;48.794;9.182;2022-11-20T11:23:02;3.00;;;2.10;;
4313;SDS011;2170;48.794;9.182;2022-11-20T11:25:30;2.10;;;1.60;;
4313;SDS011;2170;48.794;9.182;2022-11-20T11:27:59;2.30;;;2.10;;
4313;SDS011;2170;48.794;9.182;2022-11-20T11:30:27;2.30;;;2.10;;
4313;SDS011;2170;48.794;9.182;2022-11-20T11:33:03;2.50;;;2.40;;
4313;SDS011;2170;48.794;9.182;2022-11-20T11:35:33;2.50;;;2.40;;
4313;SDS011;2170;48.794;9.182;2022-11-20T11:38:04;2.23;;;2.13;;
4313;SDS011;2170;48.794;9.182;2022-11-20T11:40:32;2.87;;;2.63;;
4313;SDS011;2170;48.794;9.182;2022-11-20T11:43:01;3.90;;;2.60;;
4313;SDS011;2170;48.794;9.182;2022-11-20T11:45:29;3.50;;;2.70;;
4313;SDS011;2170;48.794;9.182;2022-11-20T11:47:57;2.33;;;2.10;;
4313;SDS011;2170;48.794;9.182;2022-11-20T11:50:25;2.20;;;2.03;;
4313;SDS011;2170;48.794;9.182;2022-11-20T11:53:01;2.47;;;2.27;;
4313;SDS011;2170;48.794;9.182;2022-11-20T11:55:31;2.60;;;2.40;;
4313;SDS011;2170;48.794;9.182;2022-11-20T11:58:04;3.17;;;2.30;;
4313;SDS011;2170;48.794;9.182;2022-11-20T12:00:33;2.63;;;2.43;;
4313;SDS011;2170;48.794;9.182;2022-11-20T12:03:03;2.43;;;2.23;;
4313;SDS011;2170;48.794;9.182;2022-11-20T12:05:34;2.20;;;1.97;;
4313;SDS011;2170;48.794;9.182;2022-11-20T12:08:05;2.40;;;1.83;;
4313;SDS011;2170;48.794;9.182;2022-11-20T12:10:37;2.03;;;1.93;;
4313;SDS011;2170;48.794;9.182;2022-11-20T12:13:08;1.93;;;1.83;;
4313;SDS011;2170;48.794;9.182;2022-11-20T12:15:36;2.23;;;2.03;;
4313;SDS011;2170;48.794;9.182;2022-11-20T12:18:07;1.90;;;1.80;;
4313;SDS011;2170;48.794;9.182;2022-11-20T12:20:39;1.80;;;1.70;;
4313;SDS011;2170;48.794;9.182;2022-11-20T12:23:13;1.73;;;1.63;;
4313;SDS011;2170;48.794;9.182;2022-11-20T12:25:43;2.20;;;2.00;;
4313;SDS011;2170;48.794;9.182;2022-11-20T12:28:24;1.50;;;1.47;;
4313;SDS011;2170;48.794;9.182;2022-11-20T12:30:58;2.07;;;1.97;;
4313;SDS011;2170;48.794;9.182;2022-11-20T12:33:40;1.97;;;1.20;;
4313;SDS011;2170;48.794;9.182;2022-11-20T12:36:15;4.93;;;1.77;;
4313;SDS011;2170;48.794;9.182;2022-11-20T12:41:48;2.63;;;1.83;;
4313;SDS011;2170;48.794;9.182;2022-11-20T12:44:36;1.70;;;1.60;;
4313;SDS011;2170;48.794;9.182;2022-11-20T12:47:29;3.17;;;1.80;;
4313;SDS011;2170;48.794;9.182;2022-11-20T12:50:02;1.50;;;1.40;;
4313;SDS011;2170;48.794;9.182;2022-11-20T12:52:37;2.73;;;1.40;;
4313;SDS011;2170;48.794;9.182;2022-11-20T12:55:16;1.50;;;1.40;;
4313;SDS011;2170;48.794;9.182;2022-11-20T12:57:50;1.43;;;1.30;;
4313;SDS011;2170;48.794;9.182;2022-11-20T13:00:18;1.60;;;1.30;;
4313;SDS011;2170;48.794;9.182;2022-11-20T13:02:58;1.57;;;1.47;;
4313;SDS011;2170;48.794;9.182;2022-11-20T13:05:27;1.67;;;1.53;;
4313;SDS011;2170;48.794;9.182;2022-11-20T13:07:56;2.50;;;1.60;;
4313;SDS011;2170;48.794;9.182;2022-11-20T13:10:27;5.57;;;1.50;;
4313;SDS011;2170;48.794;9.182;2022-11-20T13:13:00;1.23;;;1.17;;
4313;SDS011;2170;48.794;9.182;2022-11-20T13:15:35;5.03;;;1.40;;
4313;SDS011;2170;48.794;9.182;2022-11-20T13:18:04;4.00;;;2.27;;
4313;SDS011;2170;48.794;9.182;2022-11-20T13:20:32;1.17;;;1.17;;
4313;SDS011;2170;48.794;9.182;2022-11-20T13:22:59;1.33;;;1.33;;
4313;SDS011;2170;48.794;9.182;2022-11-20T13:25:28;1.40;;;1.30;;
4313;SDS011;2170;48.794;9.182;2022-11-20T13:27:56;1.30;;;1.20;;
4313;SDS011;2170;48.794;9.182;2022-11-20T13:30:25;4.30;;;1.30;;
4313;SDS011;2170;48.794;9.182;2022-11-20T13:32:53;0.90;;;0.90;;
4313;SDS011;2170;48.794;9.182;2022-11-20T13:35:25;1.13;;;1.13;;
4313;SDS011;2170;48.794;9.182;2022-11-20T13:37:59;1.23;;;1.13;;
4313;SDS011;2170;48.794;9.182;2022-11-20T13:40:26;1.43;;;1.23;;
4313;SDS011;2170;48.794;9.182;2022-11-20T13:42:55;1.33;;;1.30;;
4313;SDS011;2170;48.794;9.182;2022-11-20T13:45:25;2.57;;;1.70;;
4313;SDS011;2170;48.794;9.182;2022-11-20T13:47:53;1.83;;;1.40;;
4313;SDS011;2170;48.794;9.182;2022-11-20T13:50:21;1.17;;;1.17;;
4313;SDS011;2170;48.794;9.182;2022-11-20T13:52:55;1.33;;;1.00;;
4313;SDS011;2170;48.794;9.182;2022-11-20T13:55:26;1.27;;;1.20;;
4313;SDS011;2170;48.794;9.182;2022-11-20T13:58:00;1.50;;;1.47;;
4313;SDS011;2170;48.794;9.182;2022-11-20T14:00:31;1.97;;;1.57;;
4313;SDS011;2170;48.794;9.182;2022-11-20T14:03:00;1.30;;;1.30;;
4313;SDS011;2170;48.794;9.182;2022-11-20T14:05:28;1.10;;;1.10;;
4313;SDS011;2170;48.794;9.182;2022-11-20T14:07:58;1.10;;;1.10;;
4313;SDS011;2170;48.794;9.182;2022-11-20T14:10:26;1.37;;;1.20;;
4313;SDS011;2170;48.794;9.182;2022-11-20T14:12:53;1.30;;;1.20;;
4313;SDS011;2170;48.794;9.182;2022-11-20T14:15:24;2.53;;;1.37;;
4313;SDS011;2170;48.794;9.182;2022-11-20T14:17:53;1.53;;;1.43;;
4313;SDS011;2170;48.794;9.182;2022-11-20T14:20:20;1.40;;;1.40;;
4313;SDS011;2170;48.794;9.182;2022-11-20T14:22:50;1.53;;;1.43;;
4313;SDS011;2170;48.794;9.182;2022-11-20T14:25:18;1.47;;;1.33;;
4313;SDS011;2170;48.794;9.182;2022-11-20T14:27:50;1.43;;;1.33;;
4313;SDS011;2170;48.794;9.182;2022-11-20T14:30:19;1.80;;;1.70;;
4313;SDS011;2170;48.794;9.182;2022-11-20T14:32:46;2.60;;;1.80;;
4313;SDS011;2170;48.794;9.182;2022-11-20T14:35:17;3.70;;;1.70;;
4313;SDS011;2170;48.794;9.182;2022-11-20T14:37:45;2.10;;;1.87;;
4313;SDS011;2170;48.794;9.182;2022-11-20T14:40:22;3.23;;;1.83;;
4313;SDS011;2170;48.794;9.182;2022-11-20T14:42:50;1.60;;;1.30;;
4313;SDS011;2170;48.794;9.182;2022-11-20T14:45:17;2.00;;;1.40;;
4313;SDS011;2170;48.794;9.182;2022-11-20T14:47:45;2.30;;;1.57;;
4313;SDS011;2170;48.794;9.182;2022-11-20T14:50:13;2.13;;;1.97;;
4313;SDS011;2170;48.794;9.182;2022-11-20T14:52:50;2.10;;;1.90;;
4313;SDS011;2170;48.794;9.182;2022-11-20T14:55:27;2.60;;;2.00;;
4313;SDS011;2170;48.794;9.182;2022-11-20T14:57:55;2.00;;;1.87;;
4313;SDS011;2170;48.794;9.182;2022-11-20T15:00:22;2.77;;;2.00;;
4313;SDS011;2170;48.794;9.182;2022-11-20T15:02:50;2.20;;;2.10;;
4313;SDS011;2170;48.794;9.182;2022-11-20T15:05:18;5.03;;;1.80;;
4313;SDS011;2170;48.794;9.182;2022-11-20T15:07:46;1.80;;;1.70;;
4313;SDS011;2170;48.794;9.182;2022-11-20T15:10:19;1.83;;;1.73;;
4313;SDS011;2170;48.794;9.182;2022-11-20T15:12:47;2.23;;;2.10;;
4313;SDS011;2170;48.794;9.182;2022-11-20T15:15:16;2.40;;;2.20;;
4313;SDS011;2170;48.794;9.182;2022-11-20T15:17:43;2.77;;;1.90;;
4313;SDS011;2170;48.794;9.182;2022-11-20T15:20:12;2.20;;;1.80;;
4313;SDS011;2170;48.794;9.182;2022-11-20T15:22:40;3.20;;;2.03;;
4313;SDS011;2170;48.794;9.182;2022-11-20T15:25:15;2.50;;;2.30;;
4313;SDS011;2170;48.794;9.182;2022-11-20T15:27:43;2.03;;;1.77;;
4313;SDS011;2170;48.794;9.182;2022-11-20T15:30:14;2.23;;;2.13;;
4313;SDS011;2170;48.794;9.182;2022-11-20T15:32:41;3.37;;;2.20;;